Terminal Aerodrome Forecast
Issued by NWS

Home | Current Version | Previous Version | Text Only | Print | Product List | Glossary On
Versions: 1 2 3 4 5 6 7 8 9 10 11 12 13 14 15
000
FTUS41 KBTV 030522
TAFMSS
TAF
KMSS 030522Z 0306/0406 VRB03KT P6SM SCT200
     FM030800 VRB03KT 4SM BR SCT002
     FM031100 25007KT P6SM SKC
     FM040000 VRB03KT P6SM BKN250=

USA.gov is the U.S. government's official web portal to all federal, state and local government web resources and services.